sensor_id;sensor_type;location;lat;lon;timestamp;P1;durP1;ratioP1;P2;durP2;ratioP2
47784;SDS011;35233;55.686;37.848;2023-05-15T00:00:35;9.20;;;5.88;;
47784;SDS011;35233;55.686;37.848;2023-05-15T00:03:01;9.15;;;6.43;;
47784;SDS011;35233;55.686;37.848;2023-05-15T00:05:27;9.40;;;6.75;;
47784;SDS011;35233;55.686;37.848;2023-05-15T00:07:53;7.72;;;6.07;;
47784;SDS011;35233;55.686;37.848;2023-05-15T00:10:18;8.48;;;6.13;;
47784;SDS011;35233;55.686;37.848;2023-05-15T00:12:44;11.95;;;6.60;;
47784;SDS011;35233;55.686;37.848;2023-05-15T00:15:09;9.95;;;6.72;;
47784;SDS011;35233;55.686;37.848;2023-05-15T00:17:35;12.38;;;6.78;;
47784;SDS011;35233;55.686;37.848;2023-05-15T00:20:00;8.90;;;6.68;;
47784;SDS011;35233;55.686;37.848;2023-05-15T00:22:26;8.73;;;6.40;;
47784;SDS011;35233;55.686;37.848;2023-05-15T00:24:51;9.93;;;6.38;;
47784;SDS011;35233;55.686;37.848;2023-05-15T00:27:17;8.57;;;6.95;;
47784;SDS011;35233;55.686;37.848;2023-05-15T00:29:42;11.25;;;6.78;;
47784;SDS011;35233;55.686;37.848;2023-05-15T00:32:08;9.35;;;6.60;;
47784;SDS011;35233;55.686;37.848;2023-05-15T00:34:33;9.00;;;6.57;;
47784;SDS011;35233;55.686;37.848;2023-05-15T00:36:59;10.23;;;6.70;;
47784;SDS011;35233;55.686;37.848;2023-05-15T00:39:24;10.25;;;7.22;;
47784;SDS011;35233;55.686;37.848;2023-05-15T00:41:50;10.73;;;7.18;;
47784;SDS011;35233;55.686;37.848;2023-05-15T00:44:16;9.45;;;6.85;;
47784;SDS011;35233;55.686;37.848;2023-05-15T00:46:47;10.13;;;7.10;;
47784;SDS011;35233;55.686;37.848;2023-05-15T00:49:13;10.60;;;7.32;;
47784;SDS011;35233;55.686;37.848;2023-05-15T00:51:40;8.63;;;7.15;;
47784;SDS011;35233;55.686;37.848;2023-05-15T00:54:06;8.63;;;6.82;;
47784;SDS011;35233;55.686;37.848;2023-05-15T00:56:32;9.55;;;7.20;;
47784;SDS011;35233;55.686;37.848;2023-05-15T00:58:58;9.73;;;7.45;;
47784;SDS011;35233;55.686;37.848;2023-05-15T01:01:26;10.45;;;7.95;;
47784;SDS011;35233;55.686;37.848;2023-05-15T01:03:57;9.88;;;7.05;;
47784;SDS011;35233;55.686;37.848;2023-05-15T01:06:22;11.63;;;7.72;;
47784;SDS011;35233;55.686;37.848;2023-05-15T01:08:48;11.73;;;7.38;;
47784;SDS011;35233;55.686;37.848;2023-05-15T01:11:15;10.73;;;7.25;;
47784;SDS011;35233;55.686;37.848;2023-05-15T01:13:42;9.85;;;7.45;;
47784;SDS011;35233;55.686;37.848;2023-05-15T01:16:08;9.55;;;7.78;;
47784;SDS011;35233;55.686;37.848;2023-05-15T01:18:34;9.77;;;7.72;;
47784;SDS011;35233;55.686;37.848;2023-05-15T01:29:29;9.77;;;8.10;;
47784;SDS011;35233;55.686;37.848;2023-05-15T01:32:01;9.70;;;7.85;;
47784;SDS011;35233;55.686;37.848;2023-05-15T01:35:10;10.73;;;8.13;;
47784;SDS011;35233;55.686;37.848;2023-05-15T01:37:25;9.70;;;7.77;;
47784;SDS011;35233;55.686;37.848;2023-05-15T01:39:54;11.18;;;7.60;;
47784;SDS011;35233;55.686;37.848;2023-05-15T01:42:26;9.88;;;7.35;;
47784;SDS011;35233;55.686;37.848;2023-05-15T01:44:55;9.30;;;7.38;;
47784;SDS011;35233;55.686;37.848;2023-05-15T01:47:30;10.63;;;8.18;;
47784;SDS011;35233;55.686;37.848;2023-05-15T01:50:09;9.45;;;7.38;;
47784;SDS011;35233;55.686;37.848;2023-05-15T01:52:39;8.88;;;7.60;;
47784;SDS011;35233;55.686;37.848;2023-05-15T01:55:08;10.57;;;7.50;;
47784;SDS011;35233;55.686;37.848;2023-05-15T01:57:35;10.95;;;7.78;;
47784;SDS011;35233;55.686;37.848;2023-05-15T02:00:01;9.75;;;7.43;;
47784;SDS011;35233;55.686;37.848;2023-05-15T02:02:27;9.40;;;7.72;;
47784;SDS011;35233;55.686;37.848;2023-05-15T02:04:55;11.70;;;8.00;;
47784;SDS011;35233;55.686;37.848;2023-05-15T02:07:21;9.68;;;7.70;;
47784;SDS011;35233;55.686;37.848;2023-05-15T02:09:47;9.18;;;7.35;;
47784;SDS011;35233;55.686;37.848;2023-05-15T02:12:15;9.95;;;8.00;;
47784;SDS011;35233;55.686;37.848;2023-05-15T02:14:42;10.57;;;8.13;;
47784;SDS011;35233;55.686;37.848;2023-05-15T02:17:09;9.93;;;7.43;;
47784;SDS011;35233;55.686;37.848;2023-05-15T02:19:34;8.60;;;7.07;;
47784;SDS011;35233;55.686;37.848;2023-05-15T02:22:00;8.80;;;6.97;;
47784;SDS011;35233;55.686;37.848;2023-05-15T02:24:25;8.75;;;7.47;;
47784;SDS011;35233;55.686;37.848;2023-05-15T02:26:55;9.43;;;7.20;;
47784;SDS011;35233;55.686;37.848;2023-05-15T02:29:28;9.60;;;7.28;;
47784;SDS011;35233;55.686;37.848;2023-05-15T02:34:39;8.52;;;7.28;;
47784;SDS011;35233;55.686;37.848;2023-05-15T02:37:17;7.90;;;6.60;;
47784;SDS011;35233;55.686;37.848;2023-05-15T02:39:48;8.55;;;7.45;;
47784;SDS011;35233;55.686;37.848;2023-05-15T02:42:18;8.23;;;6.38;;
47784;SDS011;35233;55.686;37.848;2023-05-15T02:44:44;8.15;;;6.63;;
47784;SDS011;35233;55.686;37.848;2023-05-15T02:47:11;9.02;;;6.85;;
47784;SDS011;35233;55.686;37.848;2023-05-15T02:49:38;8.95;;;7.10;;
47784;SDS011;35233;55.686;37.848;2023-05-15T02:52:04;10.02;;;6.93;;
47784;SDS011;35233;55.686;37.848;2023-05-15T02:54:29;8.02;;;7.15;;
47784;SDS011;35233;55.686;37.848;2023-05-15T02:56:55;8.45;;;6.78;;
47784;SDS011;35233;55.686;37.848;2023-05-15T02:59:20;8.00;;;6.40;;
47784;SDS011;35233;55.686;37.848;2023-05-15T03:01:46;8.00;;;6.93;;
47784;SDS011;35233;55.686;37.848;2023-05-15T03:04:15;7.28;;;6.38;;
47784;SDS011;35233;55.686;37.848;2023-05-15T03:06:40;7.65;;;6.35;;
47784;SDS011;35233;55.686;37.848;2023-05-15T03:09:06;7.93;;;6.18;;
47784;SDS011;35233;55.686;37.848;2023-05-15T03:11:32;8.90;;;6.57;;
47784;SDS011;35233;55.686;37.848;2023-05-15T03:13:57;7.63;;;5.95;;
47784;SDS011;35233;55.686;37.848;2023-05-15T03:16:24;7.80;;;6.00;;
47784;SDS011;35233;55.686;37.848;2023-05-15T03:18:50;7.88;;;5.90;;
47784;SDS011;35233;55.686;37.848;2023-05-15T03:21:16;6.68;;;5.60;;
47784;SDS011;35233;55.686;37.848;2023-05-15T03:23:41;7.55;;;5.90;;
47784;SDS011;35233;55.686;37.848;2023-05-15T03:26:07;7.22;;;5.72;;
47784;SDS011;35233;55.686;37.848;2023-05-15T03:28:32;7.78;;;5.63;;
47784;SDS011;35233;55.686;37.848;2023-05-15T03:30:58;8.07;;;5.78;;
47784;SDS011;35233;55.686;37.848;2023-05-15T03:33:24;7.22;;;5.78;;
47784;SDS011;35233;55.686;37.848;2023-05-15T03:35:49;6.30;;;5.30;;
47784;SDS011;35233;55.686;37.848;2023-05-15T03:38:16;7.93;;;5.07;;
47784;SDS011;35233;55.686;37.848;2023-05-15T03:40:41;8.43;;;5.38;;
47784;SDS011;35233;55.686;37.848;2023-05-15T03:43:07;6.85;;;5.07;;
47784;SDS011;35233;55.686;37.848;2023-05-15T03:45:32;6.68;;;5.47;;
47784;SDS011;35233;55.686;37.848;2023-05-15T03:48:00;7.63;;;5.70;;
47784;SDS011;35233;55.686;37.848;2023-05-15T03:50:26;7.68;;;5.20;;
47784;SDS011;35233;55.686;37.848;2023-05-15T03:52:51;7.78;;;5.18;;
47784;SDS011;35233;55.686;37.848;2023-05-15T03:55:17;6.55;;;4.82;;
47784;SDS011;35233;55.686;37.848;2023-05-15T03:57:43;7.35;;;5.30;;
47784;SDS011;35233;55.686;37.848;2023-05-15T04:00:08;6.20;;;4.75;;
47784;SDS011;35233;55.686;37.848;2023-05-15T04:02:35;5.78;;;4.57;;
47784;SDS011;35233;55.686;37.848;2023-05-15T04:05:04;5.10;;;4.32;;
47784;SDS011;35233;55.686;37.848;2023-05-15T04:07:31;8.68;;;4.93;;
47784;SDS011;35233;55.686;37.848;2023-05-15T04:09:57;6.78;;;4.30;;
47784;SDS011;35233;55.686;37.848;2023-05-15T04:12:26;6.10;;;4.65;;
47784;SDS011;35233;55.686;37.848;2023-05-15T04:15:15;5.57;;;4.28;;
47784;SDS011;35233;55.686;37.848;2023-05-15T04:17:43;5.68;;;4.10;;
47784;SDS011;35233;55.686;37.848;2023-05-15T04:20:11;5.28;;;4.25;;
47784;SDS011;35233;55.686;37.848;2023-05-15T04:22:39;5.63;;;3.70;;
47784;SDS011;35233;55.686;37.848;2023-05-15T04:25:05;6.88;;;4.40;;
47784;SDS011;35233;55.686;37.848;2023-05-15T04:27:31;6.32;;;4.57;;
47784;SDS011;35233;55.686;37.848;2023-05-15T04:29:57;5.60;;;4.50;;
47784;SDS011;35233;55.686;37.848;2023-05-15T04:32:23;6.82;;;4.63;;
47784;SDS011;35233;55.686;37.848;2023-05-15T04:34:48;6.97;;;4.22;;
47784;SDS011;35233;55.686;37.848;2023-05-15T04:37:14;5.90;;;4.10;;
47784;SDS011;35233;55.686;37.848;2023-05-15T04:39:39;19.65;;;11.18;;
47784;SDS011;35233;55.686;37.848;2023-05-15T04:42:05;26.58;;;19.05;;
47784;SDS011;35233;55.686;37.848;2023-05-15T04:44:30;29.08;;;21.05;;
47784;SDS011;35233;55.686;37.848;2023-05-15T04:46:57;32.30;;;22.23;;
47784;SDS011;35233;55.686;37.848;2023-05-15T04:49:23;33.05;;;22.20;;
47784;SDS011;35233;55.686;37.848;2023-05-15T04:51:48;31.88;;;20.90;;
47784;SDS011;35233;55.686;37.848;2023-05-15T04:54:13;29.02;;;20.63;;
47784;SDS011;35233;55.686;37.848;2023-05-15T04:56:39;29.83;;;20.58;;
47784;SDS011;35233;55.686;37.848;2023-05-15T04:59:04;29.35;;;19.67;;
47784;SDS011;35233;55.686;37.848;2023-05-15T05:01:30;31.60;;;18.50;;
47784;SDS011;35233;55.686;37.848;2023-05-15T05:03:56;26.40;;;18.00;;
47784;SDS011;35233;55.686;37.848;2023-05-15T05:06:21;30.77;;;19.30;;
47784;SDS011;35233;55.686;37.848;2023-05-15T05:08:47;30.65;;;21.25;;
47784;SDS011;35233;55.686;37.848;2023-05-15T05:11:13;36.22;;;22.92;;
47784;SDS011;35233;55.686;37.848;2023-05-15T05:13:38;32.45;;;22.20;;
47784;SDS011;35233;55.686;37.848;2023-05-15T05:16:04;40.70;;;25.50;;
47784;SDS011;35233;55.686;37.848;2023-05-15T05:18:29;42.75;;;28.60;;
47784;SDS011;35233;55.686;37.848;2023-05-15T05:21:13;39.95;;;28.60;;
47784;SDS011;35233;55.686;37.848;2023-05-15T05:23:38;42.53;;;27.55;;
47784;SDS011;35233;55.686;37.848;2023-05-15T05:26:04;35.53;;;26.38;;
47784;SDS011;35233;55.686;37.848;2023-05-15T05:28:29;38.03;;;26.05;;
47784;SDS011;35233;55.686;37.848;2023-05-15T05:30:55;34.25;;;25.83;;
47784;SDS011;35233;55.686;37.848;2023-05-15T05:33:23;42.70;;;25.67;;
47784;SDS011;35233;55.686;37.848;2023-05-15T05:35:51;32.67;;;23.13;;
47784;SDS011;35233;55.686;37.848;2023-05-15T05:38:17;35.45;;;22.75;;
47784;SDS011;35233;55.686;37.848;2023-05-15T05:40:43;32.45;;;22.02;;
47784;SDS011;35233;55.686;37.848;2023-05-15T05:43:08;32.38;;;23.13;;
47784;SDS011;35233;55.686;37.848;2023-05-15T05:45:34;31.70;;;22.10;;
47784;SDS011;35233;55.686;37.848;2023-05-15T05:47:59;31.15;;;21.42;;
47784;SDS011;35233;55.686;37.848;2023-05-15T05:50:24;29.30;;;20.20;;
47784;SDS011;35233;55.686;37.848;2023-05-15T05:52:50;28.67;;;20.85;;
47784;SDS011;35233;55.686;37.848;2023-05-15T05:55:15;26.70;;;19.50;;
47784;SDS011;35233;55.686;37.848;2023-05-15T05:57:41;29.33;;;18.88;;
47784;SDS011;35233;55.686;37.848;2023-05-15T06:00:07;27.00;;;19.02;;
47784;SDS011;35233;55.686;37.848;2023-05-15T06:02:34;26.05;;;18.80;;
47784;SDS011;35233;55.686;37.848;2023-05-15T06:05:01;28.15;;;19.25;;
47784;SDS011;35233;55.686;37.848;2023-05-15T06:07:27;27.63;;;20.25;;
47784;SDS011;35233;55.686;37.848;2023-05-15T06:09:52;29.65;;;22.83;;
47784;SDS011;35233;55.686;37.848;2023-05-15T06:12:18;34.85;;;25.27;;
47784;SDS011;35233;55.686;37.848;2023-05-15T06:14:43;32.28;;;26.88;;
47784;SDS011;35233;55.686;37.848;2023-05-15T06:17:08;39.35;;;30.13;;
47784;SDS011;35233;55.686;37.848;2023-05-15T06:19:34;45.97;;;38.20;;
47784;SDS011;35233;55.686;37.848;2023-05-15T06:22:00;53.30;;;44.05;;
47784;SDS011;35233;55.686;37.848;2023-05-15T06:24:25;58.13;;;45.65;;
47784;SDS011;35233;55.686;37.848;2023-05-15T06:26:51;59.53;;;47.72;;
47784;SDS011;35233;55.686;37.848;2023-05-15T06:29:16;60.72;;;50.58;;
47784;SDS011;35233;55.686;37.848;2023-05-15T06:31:42;62.83;;;51.90;;
47784;SDS011;35233;55.686;37.848;2023-05-15T06:34:07;62.05;;;51.47;;
47784;SDS011;35233;55.686;37.848;2023-05-15T06:36:33;60.63;;;48.78;;
47784;SDS011;35233;55.686;37.848;2023-05-15T06:38:59;61.83;;;50.55;;
47784;SDS011;35233;55.686;37.848;2023-05-15T06:41:24;63.40;;;51.03;;
47784;SDS011;35233;55.686;37.848;2023-05-15T06:43:50;62.35;;;51.33;;
47784;SDS011;35233;55.686;37.848;2023-05-15T06:46:15;59.50;;;48.17;;
47784;SDS011;35233;55.686;37.848;2023-05-15T06:48:43;54.83;;;46.50;;
47784;SDS011;35233;55.686;37.848;2023-05-15T06:51:09;55.08;;;45.25;;
47784;SDS011;35233;55.686;37.848;2023-05-15T06:53:34;50.92;;;43.33;;
47784;SDS011;35233;55.686;37.848;2023-05-15T06:56:00;55.05;;;45.40;;
47784;SDS011;35233;55.686;37.848;2023-05-15T06:58:25;55.22;;;45.85;;
47784;SDS011;35233;55.686;37.848;2023-05-15T07:00:51;52.72;;;45.83;;
47784;SDS011;35233;55.686;37.848;2023-05-15T07:03:16;53.42;;;43.55;;
47784;SDS011;35233;55.686;37.848;2023-05-15T07:05:42;55.63;;;44.85;;
47784;SDS011;35233;55.686;37.848;2023-05-15T07:08:08;51.10;;;43.28;;
47784;SDS011;35233;55.686;37.848;2023-05-15T07:10:33;52.33;;;43.28;;
47784;SDS011;35233;55.686;37.848;2023-05-15T07:12:59;51.22;;;43.47;;
47784;SDS011;35233;55.686;37.848;2023-05-15T07:15:24;49.60;;;40.90;;
47784;SDS011;35233;55.686;37.848;2023-05-15T07:17:50;50.30;;;41.22;;
47784;SDS011;35233;55.686;37.848;2023-05-15T07:20:16;51.40;;;41.42;;
47784;SDS011;35233;55.686;37.848;2023-05-15T07:22:41;49.55;;;40.85;;
47784;SDS011;35233;55.686;37.848;2023-05-15T07:25:07;46.45;;;38.20;;
47784;SDS011;35233;55.686;37.848;2023-05-15T07:27:33;46.35;;;37.35;;
47784;SDS011;35233;55.686;37.848;2023-05-15T07:30:00;44.13;;;36.58;;
47784;SDS011;35233;55.686;37.848;2023-05-15T07:32:26;43.85;;;36.70;;
47784;SDS011;35233;55.686;37.848;2023-05-15T07:34:51;40.97;;;34.17;;
47784;SDS011;35233;55.686;37.848;2023-05-15T07:37:17;42.10;;;34.58;;
47784;SDS011;35233;55.686;37.848;2023-05-15T07:39:43;43.78;;;35.13;;
47784;SDS011;35233;55.686;37.848;2023-05-15T07:42:08;43.58;;;35.15;;
47784;SDS011;35233;55.686;37.848;2023-05-15T07:44:34;44.10;;;36.33;;
47784;SDS011;35233;55.686;37.848;2023-05-15T07:46:59;46.33;;;37.78;;
47784;SDS011;35233;55.686;37.848;2023-05-15T07:49:25;47.65;;;36.88;;
47784;SDS011;35233;55.686;37.848;2023-05-15T07:51:50;44.85;;;36.75;;
47784;SDS011;35233;55.686;37.848;2023-05-15T07:54:15;43.22;;;34.35;;
47784;SDS011;35233;55.686;37.848;2023-05-15T07:56:41;41.83;;;35.05;;
47784;SDS011;35233;55.686;37.848;2023-05-15T07:59:06;42.72;;;35.95;;
47784;SDS011;35233;55.686;37.848;2023-05-15T08:01:32;43.55;;;36.83;;
47784;SDS011;35233;55.686;37.848;2023-05-15T08:03:57;44.63;;;36.63;;
47784;SDS011;35233;55.686;37.848;2023-05-15T08:06:23;45.03;;;37.00;;
47784;SDS011;35233;55.686;37.848;2023-05-15T08:08:49;44.65;;;36.28;;
47784;SDS011;35233;55.686;37.848;2023-05-15T08:11:14;42.25;;;35.15;;
47784;SDS011;35233;55.686;37.848;2023-05-15T08:13:40;43.78;;;34.05;;
47784;SDS011;35233;55.686;37.848;2023-05-15T08:16:05;42.47;;;34.92;;
47784;SDS011;35233;55.686;37.848;2023-05-15T08:18:31;42.95;;;34.80;;
47784;SDS011;35233;55.686;37.848;2023-05-15T08:20:56;37.85;;;31.73;;
47784;SDS011;35233;55.686;37.848;2023-05-15T08:23:22;37.65;;;30.98;;
47784;SDS011;35233;55.686;37.848;2023-05-15T08:25:48;39.13;;;31.23;;
47784;SDS011;35233;55.686;37.848;2023-05-15T08:28:13;36.70;;;32.10;;
47784;SDS011;35233;55.686;37.848;2023-05-15T08:30:39;37.35;;;30.90;;
47784;SDS011;35233;55.686;37.848;2023-05-15T08:33:04;40.50;;;33.28;;
47784;SDS011;35233;55.686;37.848;2023-05-15T08:35:30;42.97;;;34.90;;
47784;SDS011;35233;55.686;37.848;2023-05-15T08:37:56;41.28;;;34.63;;
47784;SDS011;35233;55.686;37.848;2023-05-15T08:40:22;43.10;;;35.72;;
47784;SDS011;35233;55.686;37.848;2023-05-15T08:42:48;40.30;;;34.08;;
47784;SDS011;35233;55.686;37.848;2023-05-15T08:45:19;38.40;;;32.92;;
47784;SDS011;35233;55.686;37.848;2023-05-15T08:47:45;38.58;;;32.92;;
47784;SDS011;35233;55.686;37.848;2023-05-15T08:52:39;37.15;;;31.55;;
47784;SDS011;35233;55.686;37.848;2023-05-15T08:55:07;35.00;;;30.27;;
47784;SDS011;35233;55.686;37.848;2023-05-15T08:57:33;35.78;;;30.73;;
47784;SDS011;35233;55.686;37.848;2023-05-15T09:00:00;34.83;;;29.20;;
47784;SDS011;35233;55.686;37.848;2023-05-15T09:02:28;37.90;;;29.52;;
47784;SDS011;35233;55.686;37.848;2023-05-15T09:04:53;34.35;;;29.85;;
47784;SDS011;35233;55.686;37.848;2023-05-15T09:07:19;39.63;;;33.80;;
47784;SDS011;35233;55.686;37.848;2023-05-15T09:09:45;42.63;;;34.65;;
47784;SDS011;35233;55.686;37.848;2023-05-15T09:12:14;44.13;;;35.45;;
47784;SDS011;35233;55.686;37.848;2023-05-15T09:14:41;42.13;;;36.25;;
47784;SDS011;35233;55.686;37.848;2023-05-15T09:17:10;41.28;;;34.50;;
47784;SDS011;35233;55.686;37.848;2023-05-15T09:19:40;39.47;;;33.30;;
47784;SDS011;35233;55.686;37.848;2023-05-15T09:22:15;40.55;;;34.85;;
47784;SDS011;35233;55.686;37.848;2023-05-15T09:24:43;39.58;;;33.22;;
47784;SDS011;35233;55.686;37.848;2023-05-15T09:27:12;39.95;;;33.88;;
47784;SDS011;35233;55.686;37.848;2023-05-15T09:29:37;40.88;;;35.35;;
47784;SDS011;35233;55.686;37.848;2023-05-15T09:34:34;46.67;;;40.35;;
47784;SDS011;35233;55.686;37.848;2023-05-15T09:39:55;46.90;;;39.22;;
47784;SDS011;35233;55.686;37.848;2023-05-15T09:42:32;44.63;;;38.53;;
47784;SDS011;35233;55.686;37.848;2023-05-15T09:44:58;42.83;;;37.88;;
47784;SDS011;35233;55.686;37.848;2023-05-15T09:47:24;43.80;;;36.38;;
47784;SDS011;35233;55.686;37.848;2023-05-15T09:49:50;47.00;;;36.00;;
47784;SDS011;35233;55.686;37.848;2023-05-15T09:52:17;40.28;;;34.60;;
47784;SDS011;35233;55.686;37.848;2023-05-15T09:54:43;41.42;;;35.25;;
47784;SDS011;35233;55.686;37.848;2023-05-15T09:57:12;40.55;;;34.95;;
47784;SDS011;35233;55.686;37.848;2023-05-15T09:59:45;42.70;;;35.50;;
47784;SDS011;35233;55.686;37.848;2023-05-15T10:02:22;41.40;;;35.03;;
47784;SDS011;35233;55.686;37.848;2023-05-15T10:04:54;40.58;;;34.30;;
47784;SDS011;35233;55.686;37.848;2023-05-15T10:07:31;41.00;;;35.20;;
47784;SDS011;35233;55.686;37.848;2023-05-15T10:09:58;39.13;;;33.45;;
47784;SDS011;35233;55.686;37.848;2023-05-15T10:12:24;40.78;;;34.15;;
47784;SDS011;35233;55.686;37.848;2023-05-15T10:14:50;38.55;;;33.85;;
47784;SDS011;35233;55.686;37.848;2023-05-15T10:17:20;37.88;;;33.15;;
47784;SDS011;35233;55.686;37.848;2023-05-15T10:19:49;39.08;;;33.50;;
47784;SDS011;35233;55.686;37.848;2023-05-15T10:22:18;38.08;;;33.83;;
47784;SDS011;35233;55.686;37.848;2023-05-15T10:24:48;39.67;;;32.53;;
47784;SDS011;35233;55.686;37.848;2023-05-15T10:27:22;41.50;;;35.13;;
47784;SDS011;35233;55.686;37.848;2023-05-15T10:29:47;40.15;;;34.53;;
47784;SDS011;35233;55.686;37.848;2023-05-15T10:32:15;39.47;;;35.15;;
47784;SDS011;35233;55.686;37.848;2023-05-15T10:34:41;40.92;;;34.60;;
47784;SDS011;35233;55.686;37.848;2023-05-15T10:37:07;37.72;;;32.70;;
47784;SDS011;35233;55.686;37.848;2023-05-15T10:39:34;38.70;;;34.10;;
47784;SDS011;35233;55.686;37.848;2023-05-15T10:42:05;40.25;;;35.38;;
47784;SDS011;35233;55.686;37.848;2023-05-15T10:44:32;38.60;;;33.33;;
47784;SDS011;35233;55.686;37.848;2023-05-15T10:46:57;37.13;;;31.92;;
47784;SDS011;35233;55.686;37.848;2023-05-15T10:49:23;38.20;;;32.75;;
47784;SDS011;35233;55.686;37.848;2023-05-15T10:51:50;36.35;;;32.33;;
47784;SDS011;35233;55.686;37.848;2023-05-15T10:57:01;40.25;;;34.90;;
47784;SDS011;35233;55.686;37.848;2023-05-15T10:59:32;40.65;;;34.28;;
47784;SDS011;35233;55.686;37.848;2023-05-15T11:04:44;39.33;;;34.75;;
47784;SDS011;35233;55.686;37.848;2023-05-15T11:07:11;38.40;;;34.13;;
47784;SDS011;35233;55.686;37.848;2023-05-15T11:09:38;38.15;;;33.60;;
47784;SDS011;35233;55.686;37.848;2023-05-15T11:12:05;37.38;;;32.28;;
47784;SDS011;35233;55.686;37.848;2023-05-15T11:14:36;36.50;;;32.33;;
47784;SDS011;35233;55.686;37.848;2023-05-15T11:17:04;37.05;;;30.75;;
47784;SDS011;35233;55.686;37.848;2023-05-15T11:19:31;34.72;;;30.08;;
47784;SDS011;35233;55.686;37.848;2023-05-15T11:25:00;35.70;;;30.25;;
47784;SDS011;35233;55.686;37.848;2023-05-15T11:35:12;30.23;;;26.38;;
47784;SDS011;35233;55.686;37.848;2023-05-15T11:37:43;30.20;;;25.60;;
47784;SDS011;35233;55.686;37.848;2023-05-15T11:40:24;29.75;;;25.77;;
47784;SDS011;35233;55.686;37.848;2023-05-15T11:43:15;30.70;;;26.63;;
47784;SDS011;35233;55.686;37.848;2023-05-15T11:45:40;28.55;;;25.42;;
47784;SDS011;35233;55.686;37.848;2023-05-15T11:48:09;29.92;;;25.30;;
47784;SDS011;35233;55.686;37.848;2023-05-15T11:50:37;27.70;;;24.20;;
47784;SDS011;35233;55.686;37.848;2023-05-15T11:53:05;30.23;;;25.30;;
47784;SDS011;35233;55.686;37.848;2023-05-15T11:55:32;28.52;;;25.23;;
47784;SDS011;35233;55.686;37.848;2023-05-15T11:57:59;31.50;;;27.08;;
47784;SDS011;35233;55.686;37.848;2023-05-15T12:00:25;32.55;;;27.25;;
47784;SDS011;35233;55.686;37.848;2023-05-15T12:02:51;34.45;;;29.42;;
47784;SDS011;35233;55.686;37.848;2023-05-15T12:05:17;33.85;;;29.83;;
47784;SDS011;35233;55.686;37.848;2023-05-15T12:07:43;35.50;;;31.42;;
47784;SDS011;35233;55.686;37.848;2023-05-15T12:10:09;36.95;;;31.73;;
47784;SDS011;35233;55.686;37.848;2023-05-15T12:12:39;37.65;;;32.25;;
47784;SDS011;35233;55.686;37.848;2023-05-15T12:15:13;39.25;;;33.60;;
47784;SDS011;35233;55.686;37.848;2023-05-15T12:17:41;39.35;;;33.10;;
47784;SDS011;35233;55.686;37.848;2023-05-15T12:20:14;38.83;;;34.33;;
47784;SDS011;35233;55.686;37.848;2023-05-15T12:22:41;40.33;;;34.75;;
47784;SDS011;35233;55.686;37.848;2023-05-15T12:25:07;38.90;;;34.67;;
47784;SDS011;35233;55.686;37.848;2023-05-15T12:27:35;40.85;;;35.38;;
47784;SDS011;35233;55.686;37.848;2023-05-15T12:30:01;39.35;;;34.97;;
47784;SDS011;35233;55.686;37.848;2023-05-15T12:32:34;41.25;;;36.08;;
47784;SDS011;35233;55.686;37.848;2023-05-15T12:35:01;46.75;;;38.78;;
47784;SDS011;35233;55.686;37.848;2023-05-15T12:37:32;47.72;;;41.55;;
47784;SDS011;35233;55.686;37.848;2023-05-15T12:40:00;50.78;;;43.30;;
47784;SDS011;35233;55.686;37.848;2023-05-15T12:42:42;50.47;;;43.97;;
47784;SDS011;35233;55.686;37.848;2023-05-15T12:47:38;57.90;;;50.40;;
47784;SDS011;35233;55.686;37.848;2023-05-15T12:50:17;56.80;;;49.03;;
47784;SDS011;35233;55.686;37.848;2023-05-15T12:52:54;58.85;;;49.35;;
47784;SDS011;35233;55.686;37.848;2023-05-15T12:55:25;57.08;;;48.05;;
47784;SDS011;35233;55.686;37.848;2023-05-15T12:57:52;54.10;;;47.00;;
47784;SDS011;35233;55.686;37.848;2023-05-15T13:00:21;53.70;;;45.63;;
47784;SDS011;35233;55.686;37.848;2023-05-15T13:02:47;52.22;;;44.33;;
47784;SDS011;35233;55.686;37.848;2023-05-15T13:05:14;48.67;;;41.97;;
47784;SDS011;35233;55.686;37.848;2023-05-15T13:07:40;51.50;;;42.75;;
47784;SDS011;35233;55.686;37.848;2023-05-15T13:10:07;44.55;;;38.78;;
47784;SDS011;35233;55.686;37.848;2023-05-15T13:12:41;46.00;;;39.15;;
47784;SDS011;35233;55.686;37.848;2023-05-15T13:15:20;42.80;;;37.45;;
47784;SDS011;35233;55.686;37.848;2023-05-15T13:17:50;42.92;;;37.30;;
47784;SDS011;35233;55.686;37.848;2023-05-15T13:20:26;40.70;;;35.72;;
47784;SDS011;35233;55.686;37.848;2023-05-15T13:22:53;39.35;;;34.65;;
47784;SDS011;35233;55.686;37.848;2023-05-15T13:25:19;40.65;;;34.38;;
47784;SDS011;35233;55.686;37.848;2023-05-15T13:27:48;37.95;;;33.80;;
47784;SDS011;35233;55.686;37.848;2023-05-15T13:30:14;40.92;;;34.88;;
47784;SDS011;35233;55.686;37.848;2023-05-15T13:32:41;40.42;;;35.03;;
47784;SDS011;35233;55.686;37.848;2023-05-15T13:35:06;40.00;;;35.67;;
47784;SDS011;35233;55.686;37.848;2023-05-15T13:37:32;42.83;;;36.75;;
47784;SDS011;35233;55.686;37.848;2023-05-15T13:39:58;45.13;;;38.05;;
47784;SDS011;35233;55.686;37.848;2023-05-15T13:42:24;44.65;;;38.92;;
47784;SDS011;35233;55.686;37.848;2023-05-15T13:44:49;47.45;;;40.38;;
47784;SDS011;35233;55.686;37.848;2023-05-15T13:47:15;46.90;;;39.45;;
47784;SDS011;35233;55.686;37.848;2023-05-15T13:49:41;45.00;;;39.08;;
47784;SDS011;35233;55.686;37.848;2023-05-15T13:52:06;46.55;;;40.10;;
47784;SDS011;35233;55.686;37.848;2023-05-15T13:54:32;44.50;;;38.67;;
47784;SDS011;35233;55.686;37.848;2023-05-15T13:56:57;46.75;;;39.58;;
47784;SDS011;35233;55.686;37.848;2023-05-15T13:59:23;45.28;;;39.03;;
47784;SDS011;35233;55.686;37.848;2023-05-15T14:01:48;46.88;;;39.08;;
47784;SDS011;35233;55.686;37.848;2023-05-15T14:04:13;45.60;;;39.15;;
47784;SDS011;35233;55.686;37.848;2023-05-15T14:06:39;45.08;;;39.13;;
47784;SDS011;35233;55.686;37.848;2023-05-15T14:09:05;42.50;;;37.90;;
47784;SDS011;35233;55.686;37.848;2023-05-15T14:11:31;44.88;;;38.83;;
47784;SDS011;35233;55.686;37.848;2023-05-15T14:13:57;46.63;;;39.53;;
47784;SDS011;35233;55.686;37.848;2023-05-15T14:16:24;43.95;;;37.90;;
47784;SDS011;35233;55.686;37.848;2023-05-15T14:18:49;48.38;;;41.05;;
47784;SDS011;35233;55.686;37.848;2023-05-15T14:21:15;42.45;;;37.80;;
47784;SDS011;35233;55.686;37.848;2023-05-15T14:23:40;43.95;;;39.25;;
47784;SDS011;35233;55.686;37.848;2023-05-15T14:26:06;46.75;;;41.15;;
47784;SDS011;35233;55.686;37.848;2023-05-15T14:28:31;44.42;;;39.55;;
47784;SDS011;35233;55.686;37.848;2023-05-15T14:30:58;46.28;;;41.28;;
47784;SDS011;35233;55.686;37.848;2023-05-15T14:33:23;47.20;;;40.95;;
47784;SDS011;35233;55.686;37.848;2023-05-15T14:35:50;48.08;;;42.60;;
47784;SDS011;35233;55.686;37.848;2023-05-15T14:38:16;48.30;;;42.67;;
47784;SDS011;35233;55.686;37.848;2023-05-15T14:40:41;46.90;;;41.45;;
47784;SDS011;35233;55.686;37.848;2023-05-15T14:43:07;48.10;;;42.53;;
47784;SDS011;35233;55.686;37.848;2023-05-15T14:45:32;48.10;;;42.30;;
47784;SDS011;35233;55.686;37.848;2023-05-15T14:47:58;47.20;;;41.38;;
47784;SDS011;35233;55.686;37.848;2023-05-15T14:50:23;48.25;;;41.97;;
47784;SDS011;35233;55.686;37.848;2023-05-15T14:52:49;49.60;;;42.80;;